Time;durP1;ratioP1;P1;durP2;ratioP2;P2;SDS_P1;SDS_P2;PMS_P1;PMS_P2;Temp;Humidity;BMP_temperature;BMP_pressure;BME280_temperature;BME280_humidity;BME280_pressure;Samples;Min_cycle;Max_cycle;Signal;HPM_P1;HPM_P2
2023/12/07 00:00:17;;;;;;;9.07;6.20;;;;;;;19.52;40.30;101120.13;4619595;31;20056;-49
2023/12/07 00:02:44;;;;;;;9.50;6.65;;;;;;;19.51;40.25;101118.44;4620421;31;20055;-52
2023/12/07 00:05:12;;;;;;;7.85;6.20;;;;;;;19.51;40.10;101118.44;4620498;31;20051;-50
2023/12/07 00:07:39;;;;;;;6.43;5.78;;;;;;;19.50;40.29;101112.22;4619698;31;20055;-55
2023/12/07 00:10:07;;;;;;;7.65;6.88;;;;;;;19.52;40.30;101115.59;4607017;31;20052;-54
2023/12/07 00:12:34;;;;;;;7.97;6.15;;;;;;;19.52;39.92;101109.38;4618073;31;20048;-56
2023/12/07 00:15:02;;;;;;;7.63;6.82;;;;;;;19.51;39.99;101113.06;4620714;31;20058;-55
2023/12/07 00:17:30;;;;;;;8.38;7.45;;;;;;;19.50;39.77;101103.31;4618336;31;20051;-49
2023/12/07 00:19:57;;;;;;;7.88;6.63;;;;;;;19.49;39.68;101099.78;4618868;31;20060;-49
2023/12/07 00:22:25;;;;;;;7.78;6.28;;;;;;;19.49;39.75;101104.28;4620289;31;20060;-52
2023/12/07 00:24:53;;;;;;;7.47;6.05;;;;;;;19.48;39.78;101102.56;4620021;31;20102;-53
2023/12/07 00:27:21;;;;;;;8.30;6.85;;;;;;;19.49;39.65;101104.28;4619277;31;20063;-56
2023/12/07 00:29:48;;;;;;;7.80;6.15;;;;;;;19.47;39.55;101099.03;4619229;31;20067;-54
2023/12/07 00:32:17;;;;;;;6.95;5.55;;;;;;;19.47;39.45;101101.72;4620229;31;20055;-53
2023/12/07 00:34:44;;;;;;;8.15;5.85;;;;;;;19.46;39.56;101104.53;4619755;31;20051;-52
2023/12/07 00:37:13;;;;;;;9.85;6.45;;;;;;;19.45;39.58;101103.69;4618821;31;20059;-53
2023/12/07 00:39:41;;;;;;;7.95;7.10;;;;;;;19.44;39.53;101107.31;4630640;30;20064;-53
2023/12/07 00:42:09;;;;;;;7.20;5.72;;;;;;;19.44;39.58;101101.97;4620775;31;20123;-54
2023/12/07 00:44:40;;;;;;;8.80;6.10;;;;;;;19.43;39.51;101104.78;4614527;31;20071;-54
2023/12/07 00:47:08;;;;;;;7.55;5.60;;;;;;;19.43;39.63;101105.63;4618742;31;20511;-55
2023/12/07 00:49:42;;;;;;;8.65;6.55;;;;;;;19.43;39.37;101108.31;4618509;31;20535;-55
2023/12/07 00:52:10;;;;;;;7.50;5.43;;;;;;;19.42;39.25;101103.94;4621587;31;20055;-55
2023/12/07 00:54:37;;;;;;;7.25;6.18;;;;;;;19.42;39.48;101105.75;4630559;30;20081;-54
2023/12/07 00:57:05;;;;;;;8.45;6.38;;;;;;;19.41;39.51;101110.28;4618426;31;20055;-51
2023/12/07 00:59:36;;;;;;;7.18;5.93;;;;;;;19.41;39.38;101106.75;4618189;31;20062;-51
2023/12/07 01:02:04;;;;;;;6.97;6.03;;;;;;;19.42;39.26;101121.88;4622422;31;20051;-52
2023/12/07 01:04:33;;;;;;;7.25;5.97;;;;;;;19.41;39.24;101122.88;4618232;31;20059;-53
2023/12/07 01:07:00;;;;;;;6.68;5.97;;;;;;;19.40;39.22;101129.19;4617990;31;20056;-55
2023/12/07 01:09:28;;;;;;;7.65;5.75;;;;;;;19.40;39.24;101135.41;4614082;31;20052;-54
2023/12/07 01:11:55;;;;;;;5.82;5.18;;;;;;;19.40;39.24;101143.47;4613248;31;20056;-54
2023/12/07 01:14:23;;;;;;;5.65;5.07;;;;;;;19.39;39.12;101141.75;4618139;31;20404;-54
2023/12/07 01:16:50;;;;;;;8.13;5.82;;;;;;;19.38;39.21;101150.81;4618279;31;20149;-55
2023/12/07 01:19:18;;;;;;;8.15;5.72;;;;;;;19.38;39.11;101147.25;4618601;31;20424;-51
2023/12/07 01:21:45;;;;;;;6.75;5.55;;;;;;;19.37;39.07;101154.47;4620273;31;20055;-51
2023/12/07 01:24:12;;;;;;;8.55;5.85;;;;;;;19.36;39.28;101157.25;4617719;31;20059;-51
2023/12/07 01:26:43;;;;;;;6.20;5.25;;;;;;;19.36;39.07;101157.25;4618563;31;20048;-53
2023/12/07 01:29:10;;;;;;;9.30;5.15;;;;;;;19.36;39.21;101150.06;4618311;31;20505;-50
2023/12/07 01:31:38;;;;;;;6.90;5.65;;;;;;;19.36;39.18;101165.31;4620028;31;20051;-51
2023/12/07 01:34:05;;;;;;;6.82;4.97;;;;;;;19.36;39.06;101163.47;4618301;31;20056;-48
2023/12/07 01:36:33;;;;;;;6.18;5.15;;;;;;;19.35;39.13;101167.16;4621132;31;20066;-55
2023/12/07 01:39:00;;;;;;;5.40;4.43;;;;;;;19.35;39.14;101179.72;4618195;31;20063;-55
2023/12/07 01:41:28;;;;;;;5.78;4.80;;;;;;;19.36;39.25;101176.91;4620063;31;20598;-51
2023/12/07 01:43:55;;;;;;;6.25;4.85;;;;;;;19.36;39.28;101186.78;4617719;31;20063;-53
2023/12/07 01:46:23;;;;;;;6.55;4.85;;;;;;;19.35;39.34;101172.53;4617684;31;20060;-50
2023/12/07 01:48:50;;;;;;;5.15;4.53;;;;;;;19.35;39.27;101179.72;4618733;31;20060;-51
2023/12/07 01:51:19;;;;;;;5.85;4.78;;;;;;;19.35;39.19;101183.25;4619791;31;20078;-51
2023/12/07 01:53:49;;;;;;;6.47;4.45;;;;;;;19.35;39.03;101190.47;4617995;31;20353;-49
2023/12/07 01:56:16;;;;;;;6.05;4.70;;;;;;;19.35;39.16;101193.16;4618092;31;20059;-50
2023/12/07 01:58:44;;;;;;;6.70;5.22;;;;;;;19.34;39.10;101196.81;4618046;31;20497;-53
2023/12/07 02:01:12;;;;;;;6.43;4.78;;;;;;;19.34;39.28;101181.56;4617547;31;20059;-50
2023/12/07 02:03:40;;;;;;;5.30;4.50;;;;;;;19.34;39.05;101189.63;4617885;31;20424;-49
2023/12/07 02:06:08;;;;;;;5.78;4.78;;;;;;;19.33;39.34;101197.81;4617492;31;20055;-51
2023/12/07 02:08:41;;;;;;;4.88;4.07;;;;;;;19.32;39.19;101191.53;4618721;31;20067;-53
2023/12/07 02:11:09;;;;;;;6.15;4.45;;;;;;;19.33;39.13;101195.13;4607649;31;20059;-53
2023/12/07 02:13:38;;;;;;;6.47;4.65;;;;;;;19.32;39.11;101201.44;4609828;31;20052;-54
2023/12/07 02:16:30;;;;;;;5.60;4.68;;;;;;;19.32;39.32;101193.38;4617341;31;20067;-52
2023/12/07 02:19:15;;;;;;;4.75;3.97;;;;;;;19.32;39.26;101201.44;4618438;31;20058;-50
2023/12/07 02:21:52;;;;;;;4.75;4.05;;;;;;;19.31;39.18;101199.75;4617193;31;20069;-49
2023/12/07 02:24:22;;;;;;;5.72;4.47;;;;;;;19.30;39.12;101198.88;4618801;31;20067;-52
2023/12/07 02:26:50;;;;;;;5.00;3.75;;;;;;;19.30;39.06;101196.19;4619036;31;20066;-54
2023/12/07 02:29:17;;;;;;;5.38;4.18;;;;;;;19.30;39.02;101198.03;4617393;31;20424;-52
2023/12/07 02:31:45;;;;;;;4.72;4.18;;;;;;;19.30;39.17;101192.66;4617127;31;20055;-55
2023/12/07 02:34:13;;;;;;;6.20;4.35;;;;;;;19.29;38.91;101189.13;4619079;31;20064;-48
2023/12/07 02:36:43;;;;;;;5.80;4.28;;;;;;;19.27;39.09;101189.25;4618195;31;20070;-50
2023/12/07 02:39:12;;;;;;;5.80;4.15;;;;;;;19.28;39.01;101179.34;4617148;31;20404;-49
2023/12/07 02:41:43;;;;;;;4.85;3.65;;;;;;;19.27;38.93;101181.19;4620639;31;20508;-52
2023/12/07 02:44:10;;;;;;;5.10;3.85;;;;;;;19.26;39.03;101184.00;4635645;30;20507;-50
2023/12/07 02:46:38;;;;;;;5.28;3.70;;;;;;;19.26;39.01;101184.00;4621247;31;20508;-50
2023/12/07 02:49:05;;;;;;;5.50;4.18;;;;;;;19.25;38.99;101183.16;4620223;31;20056;-51
2023/12/07 02:51:32;;;;;;;5.05;3.55;;;;;;;19.25;39.02;101188.53;4620220;31;20063;-52
2023/12/07 02:54:00;;;;;;;3.97;3.17;;;;;;;19.25;39.01;101195.72;4622846;31;20063;-50
2023/12/07 02:56:27;;;;;;;5.38;3.83;;;;;;;19.26;38.84;101192.06;4620711;31;20503;-52
2023/12/07 02:58:54;;;;;;;5.20;3.88;;;;;;;19.24;39.06;101202.94;4620274;31;20392;-51
2023/12/07 03:01:22;;;;;;;4.85;3.55;;;;;;;19.24;38.97;101194.00;4620464;31;20406;-50
2023/12/07 03:03:49;;;;;;;4.25;3.25;;;;;;;19.23;38.76;101201.19;4622521;31;20369;-50
2023/12/07 03:06:17;;;;;;;5.88;4.10;;;;;;;19.24;39.00;101199.34;4620828;31;20055;-57
2023/12/07 03:08:44;;;;;;;5.40;3.80;;;;;;;19.23;38.86;101200.34;4620173;31;20416;-54
2023/12/07 03:11:11;;;;;;;5.38;3.72;;;;;;;19.23;38.92;101203.88;4617113;31;20063;-56
2023/12/07 03:13:39;;;;;;;4.30;3.15;;;;;;;19.22;39.00;101199.50;4607178;31;20048;-52
2023/12/07 03:16:09;;;;;;;4.05;3.05;;;;;;;19.22;38.75;101206.69;4632498;30;20059;-53
2023/12/07 03:18:37;;;;;;;4.63;3.28;;;;;;;19.22;38.77;101204.88;4619797;31;20066;-51
2023/12/07 03:21:04;;;;;;;4.35;3.55;;;;;;;19.22;38.94;101214.75;4620198;31;20056;-52
2023/12/07 03:23:32;;;;;;;5.05;3.35;;;;;;;19.22;38.87;101209.38;4627780;31;20051;-50
2023/12/07 03:25:59;;;;;;;4.70;3.60;;;;;;;19.23;38.76;101211.94;4619972;31;20056;-52
2023/12/07 03:28:26;;;;;;;4.32;3.08;;;;;;;19.22;38.76;101218.28;4620070;31;20069;-56
2023/12/07 03:30:54;;;;;;;4.80;3.22;;;;;;;19.22;38.92;101218.28;4619688;31;20048;-56
2023/12/07 03:33:21;;;;;;;5.57;3.28;;;;;;;19.21;38.87;101216.59;4621845;31;20051;-54
2023/12/07 03:35:49;;;;;;;4.38;3.20;;;;;;;19.21;38.88;101218.41;4619933;31;20063;-52
2023/12/07 03:38:16;;;;;;;5.40;3.80;;;;;;;19.21;38.93;101221.94;4619272;31;20067;-54
2023/12/07 03:40:47;;;;;;;4.25;2.80;;;;;;;19.21;38.85;101219.28;4619558;31;20063;-55
2023/12/07 03:43:18;;;;;;;3.70;2.90;;;;;;;19.22;38.85;101225.50;4622157;31;20051;-51
2023/12/07 03:45:45;;;;;;;4.57;3.20;;;;;;;19.21;38.93;101227.31;4619550;31;20420;-54
2023/12/07 03:48:12;;;;;;;4.07;3.10;;;;;;;19.20;38.80;101222.94;4619719;31;20067;-55
2023/12/07 03:50:40;;;;;;;4.70;3.58;;;;;;;19.20;38.73;101230.09;4615777;31;20059;-54
2023/12/07 03:53:07;;;;;;;3.90;3.03;;;;;;;19.20;38.86;101236.34;4622854;31;20056;-56
2023/12/07 03:55:36;;;;;;;3.90;3.35;;;;;;;19.19;38.70;101231.94;4619644;31;20492;-53
2023/12/07 03:58:04;;;;;;;4.05;2.95;;;;;;;19.20;38.85;101235.47;4619102;31;20056;-56
2023/12/07 04:00:32;;;;;;;4.07;2.60;;;;;;;19.19;38.85;101240.00;4619023;31;20060;-56
2023/12/07 04:02:59;;;;;;;3.90;2.90;;;;;;;19.19;38.75;101237.31;4622232;31;20058;-55
2023/12/07 04:05:27;;;;;;;3.83;3.00;;;;;;;19.19;38.75;101244.50;4619128;31;20060;-54
2023/12/07 04:07:54;;;;;;;3.90;2.85;;;;;;;19.19;38.84;101241.81;4619074;31;20052;-55
2023/12/07 04:10:22;;;;;;;4.50;2.90;;;;;;;19.18;38.75;101246.34;4619203;31;20051;-54
2023/12/07 04:12:49;;;;;;;4.07;3.05;;;;;;;19.17;38.83;101239.28;4615291;31;20047;-54
2023/12/07 04:15:17;;;;;;;4.47;2.85;;;;;;;19.18;38.95;101251.72;4609920;31;20056;-55
2023/12/07 04:17:46;;;;;;;5.13;2.85;;;;;;;19.17;38.92;101251.84;4619012;31;20428;-50
2023/12/07 04:20:14;;;;;;;3.55;2.75;;;;;;;19.17;38.72;101260.75;4616611;31;20058;-52
2023/12/07 04:22:41;;;;;;;5.82;3.75;;;;;;;19.16;38.91;101264.41;4621714;31;20522;-52
2023/12/07 04:25:09;;;;;;;4.47;2.90;;;;;;;19.17;38.69;101270.63;4618997;31;20056;-51
2023/12/07 04:27:36;;;;;;;3.80;2.55;;;;;;;19.16;38.86;101263.53;4618995;31;20071;-50
2023/12/07 04:30:04;;;;;;;4.22;2.83;;;;;;;19.15;38.92;101262.69;4619536;31;20055;-53
2023/12/07 04:32:32;;;;;;;3.78;2.53;;;;;;;19.14;38.94;101266.34;4620976;31;20062;-51
2023/12/07 04:34:59;;;;;;;3.60;2.40;;;;;;;19.14;38.92;101266.34;4618557;31;20063;-51
2023/12/07 04:37:27;;;;;;;3.88;2.72;;;;;;;19.14;38.90;101270.88;4618957;31;20080;-51
2023/12/07 04:39:54;;;;;;;4.13;2.50;;;;;;;19.14;38.85;101274.41;4616022;31;20052;-52
2023/12/07 04:42:22;;;;;;;4.47;2.92;;;;;;;19.13;38.96;101275.38;4621094;31;20062;-52
2023/12/07 04:44:49;;;;;;;4.25;2.72;;;;;;;19.14;38.78;101277.09;4618749;31;20047;-53
2023/12/07 04:47:17;;;;;;;4.20;2.88;;;;;;;19.12;38.81;101271.00;4619146;31;20062;-52
2023/12/07 04:49:44;;;;;;;4.03;3.00;;;;;;;19.13;38.76;101275.38;4618702;31;20064;-50
2023/12/07 04:52:12;;;;;;;3.70;2.47;;;;;;;19.12;38.55;101289.78;4620676;31;20059;-49
2023/12/07 04:54:39;;;;;;;3.33;2.78;;;;;;;19.11;38.54;101271.94;4618578;31;20048;-49
2023/12/07 04:57:06;;;;;;;3.83;2.60;;;;;;;19.11;38.63;101288.06;4618316;31;20441;-47
2023/12/07 04:59:35;;;;;;;3.58;2.58;;;;;;;19.12;38.71;101288.91;4615472;31;20067;-50
2023/12/07 05:02:06;;;;;;;3.75;2.65;;;;;;;19.12;38.83;101283.53;4620955;31;20059;-48
2023/12/07 05:04:33;;;;;;;3.22;2.00;;;;;;;19.11;38.75;101282.69;4617896;31;20052;-51
2023/12/07 05:07:03;;;;;;;4.00;2.65;;;;;;;19.12;38.74;101295.16;4618315;31;20068;-51
2023/12/07 05:09:31;;;;;;;3.72;2.50;;;;;;;19.11;38.84;101289.88;4619482;31;20060;-52
2023/12/07 05:11:58;;;;;;;5.53;2.47;;;;;;;19.11;38.74;101297.94;4619386;31;20523;-55
2023/12/07 05:14:26;;;;;;;3.85;2.50;;;;;;;19.11;38.86;101295.25;4609322;31;20053;-52
2023/12/07 05:16:55;;;;;;;3.65;2.53;;;;;;;19.10;38.55;101293.53;4611719;31;20056;-50
2023/12/07 05:19:24;;;;;;;4.32;2.67;;;;;;;19.10;38.61;101291.72;4619202;31;20498;-51
2023/12/07 05:21:52;;;;;;;3.40;2.38;;;;;;;19.10;38.62;101294.41;4619300;31;20062;-48
2023/12/07 05:24:19;;;;;;;3.63;2.40;;;;;;;19.10;38.73;101288.19;4618236;31;20056;-52
2023/12/07 05:26:47;;;;;;;3.78;2.38;;;;;;;19.09;38.67;101295.38;4618385;31;20067;-50
2023/12/07 05:29:14;;;;;;;3.72;2.53;;;;;;;19.10;38.94;101298.91;4619699;31;20409;-49
2023/12/07 05:31:42;;;;;;;3.63;2.50;;;;;;;19.10;38.93;101312.34;4619124;31;20055;-49
2023/12/07 05:34:09;;;;;;;3.75;2.47;;;;;;;19.10;38.96;101317.69;4617913;31;20075;-51
2023/12/07 05:36:37;;;;;;;2.90;1.83;;;;;;;19.10;39.00;101325.75;4618033;31;20052;-50
2023/12/07 05:39:07;;;;;;;3.58;2.50;;;;;;;19.11;39.16;101327.44;4619718;31;20086;-50
2023/12/07 05:41:34;;;;;;;2.83;2.10;;;;;;;19.12;39.42;101327.34;4618688;31;20072;-52
2023/12/07 05:44:03;;;;;;;3.85;2.88;;;;;;;19.12;39.33;101324.66;4617746;31;20063;-52
2023/12/07 05:46:32;;;;;;;4.55;2.58;;;;;;;19.12;39.44;101321.09;4618253;31;20063;-53
2023/12/07 05:48:59;;;;;;;3.53;2.33;;;;;;;19.12;39.48;101318.41;4619509;31;20440;-51
2023/12/07 05:51:27;;;;;;;3.42;1.83;;;;;;;19.12;39.44;101321.09;4618268;31;20056;-53
2023/12/07 05:53:54;;;;;;;4.38;2.65;;;;;;;19.12;39.64;101331.84;4617999;31;20399;-54
2023/12/07 05:56:22;;;;;;;3.63;2.17;;;;;;;19.12;39.63;101331.84;4629682;30;20155;-54
2023/12/07 05:58:50;;;;;;;3.75;2.42;;;;;;;19.11;39.43;101330.13;4619164;31;20071;-50
2023/12/07 06:01:18;;;;;;;2.95;2.05;;;;;;;19.11;39.43;101328.31;4618041;31;20055;-50
2023/12/07 06:03:46;;;;;;;3.40;1.90;;;;;;;19.10;39.26;101337.34;4622204;31;20055;-53
2023/12/07 06:06:14;;;;;;;3.13;2.35;;;;;;;19.10;39.19;101333.81;4629835;30;20177;-54
2023/12/07 06:08:41;;;;;;;3.30;1.85;;;;;;;19.09;39.34;101335.63;4619449;31;20111;-54
2023/12/07 06:11:09;;;;;;;4.03;2.53;;;;;;;19.09;39.36;101322.22;4617411;31;20527;-55
2023/12/07 06:13:37;;;;;;;3.60;2.10;;;;;;;19.09;39.11;101332.09;4617408;31;20068;-53
2023/12/07 06:16:05;;;;;;;5.03;2.30;;;;;;;19.07;39.20;101337.56;4607586;31;20421;-52
2023/12/07 06:18:32;;;;;;;3.50;2.45;;;;;;;19.07;39.19;101336.72;4621405;31;20055;-49
2023/12/07 06:21:00;;;;;;;3.42;1.80;;;;;;;19.07;39.10;101334.03;4621270;31;20066;-51
2023/12/07 06:23:27;;;;;;;3.60;2.40;;;;;;;19.07;39.26;101342.09;4620670;31;20062;-49
2023/12/07 06:25:55;;;;;;;2.80;1.80;;;;;;;19.05;39.01;101336.84;4621052;31;20092;-51
2023/12/07 06:28:22;;;;;;;3.95;2.05;;;;;;;19.04;38.92;101332.47;4623019;31;20063;-51
2023/12/07 06:30:49;;;;;;;3.03;1.90;;;;;;;19.04;39.06;101340.50;4621467;31;20056;-52
2023/12/07 06:33:17;;;;;;;3.92;2.33;;;;;;;19.03;38.99;101336.09;4620737;31;20055;-49
2023/12/07 06:35:46;;;;;;;3.92;2.45;;;;;;;19.03;38.92;101336.94;4620473;31;20512;-55
2023/12/07 06:38:13;;;;;;;3.25;1.95;;;;;;;19.03;39.09;101338.78;4623357;31;20070;-56
2023/12/07 06:40:41;;;;;;;3.50;2.15;;;;;;;19.02;39.12;101345.13;4620729;31;20060;-54
2023/12/07 06:43:08;;;;;;;2.92;2.03;;;;;;;19.03;38.92;101347.66;4632884;30;20067;-56
2023/12/07 06:45:37;;;;;;;3.95;2.25;;;;;;;19.03;39.15;101352.19;4620910;31;20052;-51
2023/12/07 06:48:05;;;;;;;3.22;2.10;;;;;;;19.04;39.10;101356.59;4623480;31;20052;-53
2023/12/07 06:50:32;;;;;;;4.18;2.28;;;;;;;19.03;39.24;101360.25;4620517;31;20531;-56
2023/12/07 06:52:59;;;;;;;3.88;2.38;;;;;;;19.02;39.03;101359.38;4620877;31;20155;-55
2023/12/07 06:55:27;;;;;;;3.42;2.00;;;;;;;19.03;39.12;101360.25;4620205;31;20128;-53
2023/12/07 06:57:54;;;;;;;2.85;1.80;;;;;;;19.02;39.11;101361.22;4623051;31;20062;-50
2023/12/07 07:00:22;;;;;;;2.95;1.88;;;;;;;19.01;39.10;101368.41;4620710;31;20070;-52
2023/12/07 07:02:49;;;;;;;3.55;1.90;;;;;;;19.01;39.12;101373.78;4620283;31;20066;-51
2023/12/07 07:05:16;;;;;;;2.80;2.05;;;;;;;19.00;39.06;101372.09;4620048;31;20052;-49
2023/12/07 07:07:44;;;;;;;4.13;2.60;;;;;;;19.01;38.88;101378.31;4622921;31;20059;-51
2023/12/07 07:10:12;;;;;;;3.47;2.40;;;;;;;19.01;39.17;101383.66;4620822;31;20067;-50
2023/12/07 07:12:40;;;;;;;2.80;1.70;;;;;;;19.01;39.12;101383.66;4620049;31;20060;-52
2023/12/07 07:15:08;;;;;;;3.22;2.10;;;;;;;19.01;39.13;101378.31;4617885;31;20056;-52
2023/12/07 07:17:35;;;;;;;3.65;2.38;;;;;;;19.01;39.21;101389.03;4613028;31;20047;-53
2023/12/07 07:20:03;;;;;;;3.40;2.30;;;;;;;19.00;39.06;101400.75;4611584;31;20396;-56
2023/12/07 07:22:31;;;;;;;3.15;1.92;;;;;;;19.00;39.24;101404.28;4620218;31;20059;-56
2023/12/07 07:24:58;;;;;;;3.28;2.20;;;;;;;19.00;39.10;101396.22;4626060;31;20078;-55
2023/12/07 07:27:26;;;;;;;3.10;1.98;;;;;;;19.02;39.15;101401.47;4622412;31;20526;-49
2023/12/07 07:29:53;;;;;;;3.42;2.45;;;;;;;19.00;39.22;101398.91;4628279;31;20063;-50
2023/12/07 07:32:21;;;;;;;4.53;2.10;;;;;;;19.01;39.11;101410.50;4620276;31;20067;-50
2023/12/07 07:34:48;;;;;;;3.22;2.30;;;;;;;19.00;39.26;101409.66;4619624;31;20051;-50
2023/12/07 07:37:16;;;;;;;3.22;2.13;;;;;;;19.01;39.16;101410.50;4622276;31;20066;-50
2023/12/07 07:39:43;;;;;;;3.05;1.88;;;;;;;18.99;39.18;101413.28;4611567;31;20059;-50
2023/12/07 07:42:10;;;;;;;4.22;2.30;;;;;;;18.99;39.23;101410.59;4619440;31;20051;-49
2023/12/07 07:44:38;;;;;;;2.63;1.95;;;;;;;19.00;39.35;101419.53;4619529;31;20059;-50
2023/12/07 07:47:05;;;;;;;2.72;1.80;;;;;;;19.00;39.32;101419.53;4619275;31;20066;-53
2023/12/07 07:49:33;;;;;;;3.80;2.20;;;;;;;19.02;39.55;101425.63;4627785;31;20052;-54
2023/12/07 07:52:00;;;;;;;3.45;2.05;;;;;;;19.03;39.72;101430.00;4616781;31;20067;-56
2023/12/07 07:54:28;;;;;;;2.65;1.90;;;;;;;19.03;39.77;101422.81;4615849;31;20059;-57
2023/12/07 07:56:55;;;;;;;3.60;2.15;;;;;;;19.04;39.71;101423.69;4629144;31;20063;-50
2023/12/07 07:59:22;;;;;;;2.92;1.92;;;;;;;19.07;40.03;101419.91;4613269;31;20059;-50
2023/12/07 08:01:50;;;;;;;3.42;2.10;;;;;;;19.08;40.16;101419.81;4629740;31;20059;-51
2023/12/07 08:04:17;;;;;;;4.05;2.25;;;;;;;19.11;39.99;101426.75;4619147;31;20501;-54
2023/12/07 08:06:45;;;;;;;3.33;1.90;;;;;;;19.14;39.89;101423.84;4616961;31;20500;-59
2023/12/07 08:09:12;;;;;;;3.42;2.25;;;;;;;19.16;39.56;101422.75;4616422;31;20062;-57
2023/12/07 08:11:40;;;;;;;3.80;2.20;;;;;;;19.18;39.56;101422.63;4618681;31;20048;-54
2023/12/07 08:14:08;;;;;;;3.83;2.13;;;;;;;19.21;39.62;101428.63;4618426;31;20083;-57
2023/12/07 08:16:36;;;;;;;4.80;2.40;;;;;;;19.25;39.38;101435.47;4612854;31;20060;-54
2023/12/07 08:19:03;;;;;;;4.18;1.92;;;;;;;19.31;39.26;101434.16;4609360;31;20070;-50
2023/12/07 08:21:31;;;;;;;4.82;2.00;;;;;;;19.35;39.10;101441.00;4618513;31;20455;-56
2023/12/07 08:23:58;;;;;;;4.20;2.25;;;;;;;19.40;38.90;101437.94;4619329;31;20071;-55
2023/12/07 08:26:27;;;;;;;5.50;2.40;;;;;;;19.42;38.73;101436.03;4618531;31;20082;-56
2023/12/07 08:28:56;;;;;;;4.05;1.65;;;;;;;19.44;38.55;101426.00;4610607;31;20055;-58
2023/12/07 08:31:24;;;;;;;3.80;2.40;;;;;;;19.45;38.81;101435.78;4618827;31;20508;-59
2023/12/07 08:33:51;;;;;;;5.60;2.20;;;;;;;19.47;38.86;101441.88;4618336;31;20089;-59
2023/12/07 08:36:19;;;;;;;3.67;2.00;;;;;;;19.45;39.22;101447.38;4625722;31;20055;-54
2023/12/07 08:38:47;;;;;;;3.33;1.85;;;;;;;19.43;39.06;101443.94;4618102;31;20068;-51
2023/12/07 08:41:14;;;;;;;5.88;2.25;;;;;;;19.46;38.85;101441.03;4618265;31;20064;-59
2023/12/07 08:43:41;;;;;;;4.00;2.13;;;;;;;19.49;38.64;101448.00;4617752;31;20059;-57
2023/12/07 08:46:09;;;;;;;3.08;1.90;;;;;;;19.52;38.52;101455.81;4618518;31;20056;-58
2023/12/07 08:48:37;;;;;;;4.85;2.38;;;;;;;19.55;38.52;101450.22;4618599;31;20488;-58
2023/12/07 08:51:09;;;;;;;3.47;2.00;;;;;;;19.58;38.52;101462.56;4618154;31;20059;-58
2023/12/07 08:53:38;;;;;;;3.50;1.67;;;;;;;19.59;38.47;101467.78;4618239;31;20067;-59
2023/12/07 08:56:06;;;;;;;5.22;2.70;;;;;;;19.61;38.42;101465.91;4620021;31;20048;-60
2023/12/07 08:58:33;;;;;;;4.07;2.08;;;;;;;19.62;38.45;101475.66;4618208;31;20531;-58
2023/12/07 09:01:01;;;;;;;3.63;2.20;;;;;;;19.65;38.40;101471.88;4618890;31;20404;-58
2023/12/07 09:03:31;;;;;;;4.32;2.28;;;;;;;19.68;38.45;101479.69;4618844;31;20056;-54
2023/12/07 09:06:00;;;;;;;3.75;2.17;;;;;;;19.66;38.50;101479.81;4631824;30;20063;-58
2023/12/07 09:08:28;;;;;;;3.42;1.85;;;;;;;19.67;38.68;101483.34;4617261;31;20056;-52
2023/12/07 09:10:55;;;;;;;3.05;1.70;;;;;;;19.68;38.75;101485.06;4615691;31;20163;-55
2023/12/07 09:13:23;;;;;;;2.75;1.73;;;;;;;19.68;38.66;101479.69;4618807;31;20059;-61
2023/12/07 09:15:53;;;;;;;3.75;2.03;;;;;;;19.68;38.78;101477.00;4618363;31;20052;-62
2023/12/07 09:18:21;;;;;;;6.93;2.17;;;;;;;19.69;38.69;101466.16;4604840;31;20048;-56
2023/12/07 09:20:49;;;;;;;4.13;1.80;;;;;;;19.69;38.70;101465.31;4611929;31;20075;-58
2023/12/07 09:23:16;;;;;;;3.60;2.20;;;;;;;19.68;38.66;101464.44;4618732;31;20059;-57
2023/12/07 09:25:44;;;;;;;2.88;1.80;;;;;;;19.68;38.78;101464.44;4618448;31;20352;-58
2023/12/07 09:28:12;;;;;;;3.35;1.90;;;;;;;19.69;38.55;101460.78;4617536;31;20082;-57
2023/12/07 09:30:39;;;;;;;2.65;1.83;;;;;;;19.70;38.64;101465.19;4617849;31;20063;-59
2023/12/07 09:33:07;;;;;;;4.18;2.33;;;;;;;19.68;38.38;101464.44;4618840;31;20060;-50
2023/12/07 09:35:35;;;;;;;4.28;2.33;;;;;;;19.69;37.45;101468.00;4618568;31;20062;-58
2023/12/07 09:38:02;;;;;;;4.95;2.45;;;;;;;19.67;37.21;101468.09;4630374;30;20090;-57
2023/12/07 09:40:30;;;;;;;4.03;2.80;;;;;;;19.65;37.23;101470.06;4617863;31;20392;-59
2023/12/07 09:42:58;;;;;;;3.97;2.40;;;;;;;19.66;36.91;101482.50;4619556;31;20073;-57
2023/12/07 09:45:26;;;;;;;4.90;2.45;;;;;;;19.65;36.86;101478.13;4618176;31;20052;-58
2023/12/07 09:47:55;;;;;;;3.83;2.25;;;;;;;19.65;37.15;101480.81;4617529;31;20063;-57
2023/12/07 09:50:25;;;;;;;5.38;2.63;;;;;;;19.66;37.48;101477.13;4617805;31;20077;-58
2023/12/07 09:52:56;;;;;;;3.20;1.90;;;;;;;19.68;37.46;101474.31;4620126;31;20056;-58
2023/12/07 09:55:35;;;;;;;3.92;2.38;;;;;;;19.69;37.64;101476.06;4609593;31;20064;-57
2023/12/07 09:58:05;;;;;;;4.63;2.50;;;;;;;19.68;37.45;101468.94;4617767;31;20055;-57
2023/12/07 10:00:36;;;;;;;3.17;2.00;;;;;;;19.68;37.51;101469.78;4630800;30;20096;-58
2023/12/07 10:03:09;;;;;;;3.55;2.47;;;;;;;19.69;37.50;101463.47;4618483;31;20063;-58
2023/12/07 10:05:57;;;;;;;3.87;1.87;;;;;;;19.69;37.33;101463.47;4617220;31;20135;-57
2023/12/07 10:08:35;;;;;;;4.20;2.50;;;;;;;19.71;37.21;101476.78;4618635;31;20075;-52
2023/12/07 10:11:04;;;;;;;3.95;2.33;;;;;;;19.70;37.16;101472.38;4626645;31;20063;-57
2023/12/07 10:13:34;;;;;;;3.35;2.28;;;;;;;19.69;37.10;101468.84;4617597;31;20059;-59
2023/12/07 10:16:09;;;;;;;4.32;2.35;;;;;;;19.70;37.22;101462.50;4617142;31;20058;-58
2023/12/07 10:18:40;;;;;;;4.75;2.63;;;;;;;19.70;36.99;101457.13;4618385;31;20435;-58
2023/12/07 10:21:11;;;;;;;3.70;2.28;;;;;;;19.70;36.92;101448.22;4607737;31;20056;-54
2023/12/07 10:23:46;;;;;;;4.95;2.47;;;;;;;19.70;36.85;101449.06;4617651;31;20484;-54
2023/12/07 10:26:19;;;;;;;3.78;2.85;;;;;;;19.69;36.73;101451.88;4619881;31;20385;-48
2023/12/07 10:29:00;;;;;;;4.60;2.85;;;;;;;19.68;36.70;101448.31;4614794;31;20064;-55
2023/12/07 10:31:30;;;;;;;4.28;2.35;;;;;;;19.68;36.79;101456.38;4617410;31;20071;-58
2023/12/07 10:34:00;;;;;;;4.10;2.55;;;;;;;19.68;36.72;101459.06;4626547;31;20067;-58
2023/12/07 10:36:29;;;;;;;4.03;2.40;;;;;;;19.68;36.70;101455.50;4618634;31;20067;-58
2023/12/07 10:38:58;;;;;;;4.22;2.70;;;;;;;19.68;36.70;101453.69;4617049;31;20064;-52
2023/12/07 10:41:28;;;;;;;3.83;2.63;;;;;;;19.68;36.76;101447.47;4617513;31;20054;-56
2023/12/07 10:44:01;;;;;;;3.95;2.90;;;;;;;19.68;36.88;101453.69;4618462;31;20056;-56
2023/12/07 10:46:36;;;;;;;4.32;2.60;;;;;;;19.67;36.85;101445.75;4617486;31;20415;-56
2023/12/07 10:49:20;;;;;;;4.32;2.47;;;;;;;19.68;36.83;101442.94;4617213;31;20063;-56
2023/12/07 10:52:03;;;;;;;4.28;2.67;;;;;;;19.68;36.82;101448.31;4619274;31;20454;-55
2023/12/07 10:54:45;;;;;;;4.43;3.28;;;;;;;19.68;36.90;101440.25;4608092;31;20063;-56
2023/12/07 10:57:16;;;;;;;4.43;3.10;;;;;;;19.68;36.71;101448.31;4616798;31;20063;-58
2023/12/07 10:59:46;;;;;;;4.50;3.10;;;;;;;19.67;36.65;101435.84;4618118;31;20075;-53
2023/12/07 11:02:16;;;;;;;5.38;3.20;;;;;;;19.68;36.62;101428.66;4619577;31;20511;-59
2023/12/07 11:04:49;;;;;;;4.25;3.20;;;;;;;19.66;36.69;101426.09;4619919;31;20066;-50
2023/12/07 11:07:22;;;;;;;4.57;3.10;;;;;;;19.68;36.64;101425.97;4620384;31;20059;-57
2023/12/07 11:10:10;;;;;;;4.05;2.78;;;;;;;19.66;36.60;101412.66;4621733;31;20063;-57
2023/12/07 11:12:53;;;;;;;5.88;3.13;;;;;;;19.65;36.65;101413.66;4620169;31;20397;-57
2023/12/07 11:15:22;;;;;;;4.75;2.97;;;;;;;19.64;36.53;101409.22;4620811;31;20067;-54
2023/12/07 11:17:53;;;;;;;4.82;3.35;;;;;;;19.62;36.50;101400.44;4620817;31;20055;-51
2023/12/07 11:20:42;;;;;;;6.85;3.72;;;;;;;19.63;36.77;101390.56;4615230;31;20467;-54
2023/12/07 11:23:11;;;;;;;4.95;2.97;;;;;;;19.64;37.13;101393.09;4618823;31;20063;-55
2023/12/07 11:25:44;;;;;;;4.00;2.97;;;;;;;19.66;36.98;101390.31;4620891;31;20428;-57
2023/12/07 11:28:14;;;;;;;5.40;3.47;;;;;;;19.66;36.83;101388.50;4620089;31;20506;-59
2023/12/07 11:30:47;;;;;;;3.95;2.45;;;;;;;19.68;37.07;101381.16;4630281;31;20055;-58